createdAt,value
2022-07-29T00:02:57.809Z,3.10
2022-07-29T00:05:47.241Z,4.00
2022-07-29T00:08:36.618Z,3.30
2022-07-29T00:11:25.902Z,3.40
2022-07-29T00:14:00.226Z,3.10
2022-07-29T00:16:51.310Z,2.90
2022-07-29T00:19:55.993Z,3.50
2022-07-29T00:22:39.942Z,3.60
2022-07-29T00:25:29.615Z,3.30
2022-07-29T00:28:19.973Z,3.10
2022-07-29T00:31:09.690Z,3.60
2022-07-29T00:33:58.597Z,3.50
2022-07-29T00:36:53.239Z,3.50
2022-07-29T00:39:43.201Z,3.70
2022-07-29T00:42:42.509Z,3.50
2022-07-29T00:45:32.034Z,2.80
2022-07-29T00:48:21.782Z,2.50
2022-07-29T00:51:11.566Z,3.80
2022-07-29T00:54:01.045Z,3.80
2022-07-29T00:57:00.269Z,3.30
2022-07-29T00:59:48.418Z,3.00
2022-07-29T01:02:38.587Z,3.80
2022-07-29T01:05:48.490Z,3.00
2022-07-29T01:08:57.474Z,2.40
2022-07-29T01:11:49.969Z,3.20
2022-07-29T01:14:44.394Z,2.90
2022-07-29T01:17:37.661Z,3.50
2022-07-29T01:20:47.684Z,3.60
2022-07-29T01:23:56.922Z,3.00
2022-07-29T01:26:53.461Z,2.80
2022-07-29T01:29:50.387Z,2.80
2022-07-29T01:32:41.731Z,2.90
2022-07-29T01:35:37.361Z,2.30
2022-07-29T01:38:29.513Z,3.00
2022-07-29T01:41:13.687Z,2.40
2022-07-29T01:44:10.458Z,2.30
2022-07-29T01:47:03.257Z,2.60
2022-07-29T01:49:55.414Z,2.60
2022-07-29T01:52:50.229Z,2.30
2022-07-29T01:55:45.219Z,2.40
2022-07-29T01:58:36.006Z,2.40
2022-07-29T02:01:27.721Z,2.30
2022-07-29T02:04:10.756Z,1.90
2022-07-29T02:07:03.962Z,2.00
2022-07-29T02:09:53.762Z,2.00
2022-07-29T02:12:50.796Z,2.00
2022-07-29T02:15:42.921Z,2.30
2022-07-29T02:18:28.609Z,2.00
2022-07-29T02:21:24.150Z,1.70
2022-07-29T02:24:15.332Z,1.60
2022-07-29T02:27:12.947Z,1.80
2022-07-29T02:30:14.529Z,2.30
2022-07-29T02:33:06.251Z,1.90
2022-07-29T02:35:57.987Z,2.00
2022-07-29T02:38:51.641Z,1.60
2022-07-29T02:41:39.938Z,1.70
2022-07-29T02:44:34.409Z,1.70
2022-07-29T02:47:28.654Z,1.60
2022-07-29T02:50:13.480Z,1.80
2022-07-29T02:53:08.213Z,1.60
2022-07-29T02:56:02.385Z,1.40
2022-07-29T02:58:57.847Z,1.90
2022-07-29T03:01:43.436Z,1.50
2022-07-29T03:04:17.785Z,1.70
2022-07-29T03:07:01.515Z,1.60
2022-07-29T03:09:52.367Z,1.40
2022-07-29T03:12:42.789Z,1.50
2022-07-29T03:15:32.937Z,1.50
2022-07-29T03:18:22.800Z,1.60
2022-07-29T03:21:12.414Z,1.90
2022-07-29T03:24:05.570Z,1.40
2022-07-29T03:26:59.090Z,1.20
2022-07-29T03:29:41.490Z,1.50
2022-07-29T03:32:39.556Z,1.30
2022-07-29T03:35:31.955Z,1.50
2022-07-29T03:38:11.212Z,1.50
2022-07-29T03:41:06.047Z,1.60
2022-07-29T03:43:54.717Z,1.20
2022-07-29T03:46:45.641Z,1.50
2022-07-29T03:49:37.700Z,1.30
2022-07-29T03:52:27.305Z,1.80
2022-07-29T03:55:20.084Z,1.80
2022-07-29T03:58:11.737Z,1.50
2022-07-29T04:01:01.142Z,1.60
2022-07-29T04:03:52.050Z,1.40
2022-07-29T04:10:17.680Z,1.50
2022-07-29T04:13:18.736Z,1.50
2022-07-29T04:16:09.399Z,1.50
2022-07-29T04:18:58.858Z,1.50
2022-07-29T04:21:48.356Z,1.30
2022-07-29T04:24:37.486Z,1.50
2022-07-29T04:27:27.241Z,1.90
2022-07-29T04:30:16.371Z,1.30
2022-07-29T04:33:07.848Z,1.50
2022-07-29T04:35:54.937Z,1.70
2022-07-29T04:38:44.342Z,1.50
2022-07-29T04:41:34.562Z,1.40
2022-07-29T04:44:28.767Z,1.60
2022-07-29T04:47:18.538Z,1.60
2022-07-29T04:50:19.509Z,1.30
2022-07-29T04:53:01.877Z,1.30
2022-07-29T04:55:54.189Z,1.10
2022-07-29T04:58:43.104Z,1.40
2022-07-29T05:01:32.708Z,1.00
2022-07-29T05:04:21.907Z,1.10
2022-07-29T05:07:11.033Z,1.10
2022-07-29T05:10:00.494Z,1.10
2022-07-29T05:12:51.309Z,1.30
2022-07-29T05:15:41.357Z,1.00
2022-07-29T05:18:30.615Z,1.20
2022-07-29T05:21:19.615Z,1.20
2022-07-29T05:24:09.843Z,1.30
2022-07-29T05:26:58.981Z,1.50
2022-07-29T05:29:48.186Z,1.10
2022-07-29T05:32:27.203Z,1.20
2022-07-29T05:35:16.857Z,1.00
2022-07-29T05:38:06.127Z,1.00
2022-07-29T05:40:59.506Z,1.10
2022-07-29T05:44:19.433Z,0.90
2022-07-29T05:47:07.906Z,1.00
2022-07-29T05:49:57.190Z,1.20
2022-07-29T05:52:46.169Z,1.30
2022-07-29T05:55:35.536Z,1.10
2022-07-29T05:58:28.830Z,0.90
2022-07-29T06:01:18.134Z,1.10
2022-07-29T06:04:07.755Z,1.00
2022-07-29T06:06:57.144Z,1.40
2022-07-29T06:09:46.381Z,0.80
2022-07-29T06:12:26.899Z,0.90
2022-07-29T06:15:16.438Z,1.10
2022-07-29T06:18:08.780Z,1.00
2022-07-29T06:20:59.065Z,0.90
2022-07-29T06:24:37.715Z,0.90
2022-07-29T06:28:10.876Z,0.70
2022-07-29T06:31:00.570Z,0.90
2022-07-29T06:33:51.313Z,1.00
2022-07-29T06:36:37.714Z,0.70
2022-07-29T06:39:43.214Z,0.80
2022-07-29T06:42:32.182Z,0.70
2022-07-29T06:45:21.355Z,0.90
2022-07-29T06:48:11.099Z,1.20
2022-07-29T06:51:00.711Z,0.90
2022-07-29T06:53:58.375Z,0.80
2022-07-29T06:56:53.273Z,1.00
2022-07-29T06:59:42.005Z,0.90
2022-07-29T07:02:31.100Z,0.90
2022-07-29T07:05:11.135Z,0.80
2022-07-29T07:08:14.553Z,1.00
2022-07-29T07:12:16.289Z,0.90
2022-07-29T07:15:07.717Z,1.10
2022-07-29T07:17:56.573Z,1.00
2022-07-29T07:20:46.720Z,1.00
2022-07-29T07:23:36.028Z,0.90
2022-07-29T07:26:25.609Z,1.00
2022-07-29T07:29:14.611Z,0.80
2022-07-29T07:32:04.315Z,0.80
2022-07-29T07:34:53.755Z,0.90
2022-07-29T07:37:42.888Z,0.80
2022-07-29T07:40:32.608Z,0.90
2022-07-29T07:43:22.301Z,1.20
2022-07-29T07:46:11.492Z,0.80
2022-07-29T07:49:03.829Z,1.00
2022-07-29T07:51:53.172Z,1.00
2022-07-29T07:55:09.837Z,1.10
2022-07-29T07:57:59.043Z,1.00
2022-07-29T08:00:51.554Z,2.10
2022-07-29T08:03:40.916Z,1.00
2022-07-29T08:06:30.601Z,0.90
2022-07-29T08:09:28.634Z,0.90
2022-07-29T08:12:19.288Z,0.90
2022-07-29T08:15:13.181Z,1.20
2022-07-29T08:17:54.577Z,0.90
2022-07-29T08:20:44.120Z,1.00
2022-07-29T08:23:48.545Z,1.00
2022-07-29T08:26:39.404Z,1.00
2022-07-29T08:29:28.431Z,0.80
2022-07-29T08:32:36.883Z,0.90
2022-07-29T08:35:33.330Z,1.00
2022-07-29T08:38:24.295Z,0.80
2022-07-29T08:41:14.319Z,0.80
2022-07-29T08:44:03.852Z,1.00
2022-07-29T08:46:54.352Z,1.00
2022-07-29T08:49:48.023Z,1.00
2022-07-29T08:52:42.311Z,1.00
2022-07-29T08:55:32.129Z,0.90
2022-07-29T08:58:23.247Z,1.30
2022-07-29T09:01:17.705Z,0.90
2022-07-29T09:04:12.732Z,0.90
2022-07-29T09:07:07.829Z,0.90
2022-07-29T09:09:57.881Z,0.90
2022-07-29T09:12:51.243Z,0.90
2022-07-29T09:15:40.720Z,1.00
2022-07-29T09:18:38.403Z,0.80
2022-07-29T09:22:00.005Z,0.90
2022-07-29T09:24:51.636Z,0.80
2022-07-29T09:27:34.249Z,0.70
2022-07-29T09:30:28.871Z,0.80
2022-07-29T09:33:22.543Z,0.80
2022-07-29T09:36:12.437Z,0.90
2022-07-29T09:39:04.678Z,0.80
2022-07-29T09:41:56.395Z,0.80
2022-07-29T09:44:50.389Z,1.00
2022-07-29T09:47:51.300Z,0.70
2022-07-29T09:50:41.711Z,0.90
2022-07-29T09:53:35.294Z,0.70
2022-07-29T09:56:40.521Z,1.00
2022-07-29T09:59:20.881Z,1.30
2022-07-29T10:02:20.313Z,1.40
2022-07-29T10:05:21.543Z,1.40
2022-07-29T10:08:12.859Z,1.00
2022-07-29T10:11:11.851Z,0.80
2022-07-29T10:13:54.492Z,1.10
2022-07-29T10:16:43.906Z,1.00
2022-07-29T10:19:34.455Z,0.80
2022-07-29T10:22:51.512Z,0.70
2022-07-29T10:25:35.756Z,0.70
2022-07-29T10:28:27.342Z,0.70
2022-07-29T10:31:09.197Z,0.80
2022-07-29T10:34:08.951Z,1.00
2022-07-29T10:37:07.220Z,0.80
2022-07-29T10:40:25.185Z,0.60
2022-07-29T10:43:22.248Z,0.70
2022-07-29T10:46:12.961Z,0.70
2022-07-29T10:49:11.369Z,0.60
2022-07-29T10:52:05.938Z,0.70
2022-07-29T10:54:59.269Z,0.80
2022-07-29T10:58:13.307Z,0.80
2022-07-29T11:01:37.664Z,0.80
2022-07-29T11:05:00.706Z,0.60
2022-07-29T11:08:26.081Z,0.70
2022-07-29T11:11:37.515Z,0.70
2022-07-29T11:14:58.642Z,0.70
2022-07-29T11:18:15.307Z,0.90
2022-07-29T11:21:55.052Z,0.70
2022-07-29T11:24:50.317Z,0.70
2022-07-29T11:27:40.115Z,0.70
2022-07-29T11:30:53.705Z,0.80
2022-07-29T11:33:55.997Z,0.70
2022-07-29T11:37:17.746Z,0.60
2022-07-29T11:40:14.761Z,0.70
2022-07-29T11:42:51.814Z,0.70
2022-07-29T11:45:47.829Z,0.90
2022-07-29T11:48:32.595Z,0.50
2022-07-29T11:51:32.990Z,0.60
2022-07-29T11:54:38.930Z,0.60
2022-07-29T11:58:04.061Z,0.70
2022-07-29T12:00:56.183Z,0.70
2022-07-29T12:03:45.858Z,0.80
2022-07-29T12:06:35.793Z,0.60
2022-07-29T12:09:18.591Z,0.60
2022-07-29T12:12:10.777Z,0.60
2022-07-29T12:15:11.006Z,0.70
2022-07-29T12:18:12.223Z,0.60
2022-07-29T12:20:58.790Z,0.50
2022-07-29T12:23:55.933Z,0.50
2022-07-29T12:26:56.448Z,0.60
2022-07-29T12:29:48.051Z,0.50
2022-07-29T12:32:40.463Z,0.70
2022-07-29T12:35:29.730Z,0.60
2022-07-29T12:38:20.148Z,0.70
2022-07-29T12:40:55.454Z,0.70
2022-07-29T12:43:55.072Z,0.70
2022-07-29T12:46:47.420Z,0.60
2022-07-29T12:49:32.749Z,0.60
2022-07-29T12:52:29.524Z,0.60
2022-07-29T12:55:50.009Z,0.70
2022-07-29T12:58:41.854Z,0.70
2022-07-29T13:01:21.335Z,0.60
2022-07-29T13:04:10.713Z,0.50
2022-07-29T13:07:05.881Z,0.60
2022-07-29T13:09:55.652Z,0.70
2022-07-29T13:13:04.084Z,0.60
2022-07-29T13:16:08.476Z,0.60
2022-07-29T13:19:08.763Z,0.60
2022-07-29T13:21:58.103Z,0.60
2022-07-29T13:24:50.113Z,0.60
2022-07-29T13:27:41.124Z,0.50
2022-07-29T13:30:30.481Z,0.50
2022-07-29T13:33:09.391Z,0.60
2022-07-29T13:35:58.823Z,0.70
2022-07-29T13:38:47.919Z,0.70
2022-07-29T13:41:37.206Z,0.70
2022-07-29T13:44:26.496Z,0.60
2022-07-29T13:47:32.800Z,0.60
2022-07-29T13:50:22.615Z,0.60
2022-07-29T13:53:17.502Z,0.70
2022-07-29T13:56:07.210Z,0.60
2022-07-29T13:58:46.535Z,0.40
2022-07-29T14:01:27.766Z,0.70
2022-07-29T14:04:18.039Z,0.60
2022-07-29T14:07:07.600Z,0.60
2022-07-29T14:09:57.372Z,0.70
2022-07-29T14:12:46.833Z,0.60
2022-07-29T14:15:35.803Z,0.70
2022-07-29T14:18:28.645Z,0.80
2022-07-29T14:21:10.358Z,0.60
2022-07-29T14:23:59.173Z,0.80
2022-07-29T14:26:52.924Z,0.60
2022-07-29T14:29:41.884Z,0.60
2022-07-29T14:32:31.433Z,0.60
2022-07-29T14:35:20.684Z,0.70
2022-07-29T14:38:15.824Z,0.70
2022-07-29T14:41:05.379Z,0.70
2022-07-29T14:43:54.675Z,0.70
2022-07-29T14:46:43.692Z,0.50
2022-07-29T14:49:28.330Z,0.70
2022-07-29T14:52:19.709Z,0.80
2022-07-29T14:55:19.859Z,0.60
2022-07-29T14:58:14.582Z,0.70
2022-07-29T15:01:06.374Z,0.60
2022-07-29T15:03:59.570Z,0.60
2022-07-29T15:06:49.677Z,0.70
2022-07-29T15:09:47.523Z,0.80
2022-07-29T15:12:39.756Z,0.70
2022-07-29T15:16:17.046Z,0.70
2022-07-29T15:19:07.289Z,0.60
2022-07-29T15:21:59.600Z,0.80
2022-07-29T15:24:51.035Z,0.60
2022-07-29T15:27:33.257Z,0.60
2022-07-29T15:30:32.327Z,0.60
2022-07-29T15:33:12.736Z,0.50
2022-07-29T15:36:01.776Z,0.80
2022-07-29T15:38:54.199Z,0.80
2022-07-29T15:41:43.290Z,0.70
2022-07-29T15:44:32.635Z,0.80
2022-07-29T15:47:21.630Z,0.70
2022-07-29T15:50:15.655Z,0.70
2022-07-29T15:52:57.518Z,0.80
2022-07-29T15:55:46.373Z,0.70
2022-07-29T15:58:35.254Z,0.60
2022-07-29T16:01:24.960Z,0.80
2022-07-29T16:04:14.283Z,0.70
2022-07-29T16:07:03.513Z,0.60
2022-07-29T16:09:53.449Z,0.60
2022-07-29T16:12:42.768Z,0.70
2022-07-29T16:15:32.074Z,0.60
2022-07-29T16:18:20.999Z,0.80
2022-07-29T16:21:19.181Z,0.70
2022-07-29T16:24:10.193Z,0.50
2022-07-29T16:26:59.625Z,1.00
2022-07-29T16:29:50.164Z,0.80
2022-07-29T16:32:39.707Z,0.80
2022-07-29T16:35:39.237Z,1.00
2022-07-29T16:38:29.431Z,1.10
2022-07-29T16:41:18.811Z,1.00
2022-07-29T16:44:08.309Z,0.70
2022-07-29T16:46:58.760Z,0.80
2022-07-29T16:49:50.340Z,1.00
2022-07-29T16:52:39.979Z,1.00
2022-07-29T16:57:02.613Z,0.70
2022-07-29T16:59:53.161Z,0.80
2022-07-29T17:02:42.340Z,0.80
2022-07-29T17:05:50.496Z,0.90
2022-07-29T17:08:41.204Z,1.20
2022-07-29T17:11:53.333Z,0.90
2022-07-29T17:14:39.743Z,0.90
2022-07-29T17:17:38.903Z,0.80
2022-07-29T17:20:47.016Z,0.90
2022-07-29T17:23:35.860Z,0.70
2022-07-29T17:26:26.428Z,0.90
2022-07-29T17:29:18.243Z,0.80
2022-07-29T17:31:59.100Z,0.70
2022-07-29T17:34:48.372Z,0.90
2022-07-29T17:37:37.278Z,0.80
2022-07-29T17:40:26.128Z,0.70
2022-07-29T17:43:15.885Z,0.80
2022-07-29T17:46:04.678Z,0.70
2022-07-29T17:48:55.243Z,0.80
2022-07-29T17:51:44.190Z,0.60
2022-07-29T17:54:33.437Z,0.70
2022-07-29T17:57:22.945Z,0.80
2022-07-29T18:00:13.228Z,0.90
2022-07-29T18:03:02.793Z,0.80
2022-07-29T18:05:53.007Z,0.90
2022-07-29T18:08:42.202Z,0.70
2022-07-29T18:11:31.970Z,1.00
2022-07-29T18:14:14.338Z,0.70
2022-07-29T18:17:04.114Z,0.70
2022-07-29T18:19:53.223Z,0.70
2022-07-29T18:22:35.602Z,0.70
2022-07-29T18:25:23.781Z,0.80
2022-07-29T18:28:15.009Z,0.70
2022-07-29T18:31:04.568Z,0.80
2022-07-29T18:34:00.065Z,0.90
2022-07-29T18:36:49.352Z,0.80
2022-07-29T18:39:38.472Z,0.90
2022-07-29T18:42:20.134Z,0.90
2022-07-29T18:44:50.513Z,0.80
2022-07-29T18:47:40.313Z,0.90
2022-07-29T18:50:30.953Z,0.90
2022-07-29T18:53:20.256Z,0.80
2022-07-29T18:56:10.765Z,0.80
2022-07-29T18:58:59.682Z,0.90
2022-07-29T19:01:50.338Z,0.80
2022-07-29T19:04:39.614Z,1.10
2022-07-29T19:07:29.423Z,0.90
2022-07-29T19:10:18.984Z,1.10
2022-07-29T19:13:08.662Z,0.90
2022-07-29T19:15:59.015Z,1.00
2022-07-29T19:18:48.407Z,1.10
2022-07-29T19:21:49.709Z,0.90
2022-07-29T19:24:38.957Z,0.80
2022-07-29T19:27:28.315Z,1.00
2022-07-29T19:30:19.431Z,1.10
2022-07-29T19:33:08.811Z,0.90
2022-07-29T19:35:58.585Z,0.80
2022-07-29T19:38:47.777Z,1.30
2022-07-29T19:41:37.764Z,0.90
2022-07-29T19:44:27.011Z,1.00
2022-07-29T19:51:38.388Z,1.10
2022-07-29T19:54:27.468Z,0.80
2022-07-29T19:57:16.744Z,0.80
2022-07-29T20:00:08.457Z,1.00
2022-07-29T20:03:02.802Z,1.10
2022-07-29T20:06:00.647Z,0.90
2022-07-29T20:08:56.733Z,0.90
2022-07-29T20:11:47.416Z,0.70
2022-07-29T20:14:37.443Z,1.00
2022-07-29T20:17:28.458Z,1.00
2022-07-29T20:20:19.680Z,1.10
2022-07-29T20:23:08.674Z,0.90
2022-07-29T20:25:58.220Z,0.90
2022-07-29T20:28:49.539Z,0.90
2022-07-29T20:31:32.698Z,1.00
2022-07-29T20:34:24.470Z,0.80
2022-07-29T20:37:16.037Z,0.90
2022-07-29T20:40:08.137Z,1.00
2022-07-29T20:43:02.302Z,0.90
2022-07-29T20:45:55.159Z,1.10
2022-07-29T20:48:46.651Z,1.00
2022-07-29T20:51:43.628Z,0.90
2022-07-29T20:54:33.341Z,0.80
2022-07-29T20:57:38.834Z,0.80
2022-07-29T21:00:30.836Z,0.80
2022-07-29T21:03:22.951Z,0.90
2022-07-29T21:06:12.707Z,0.70
2022-07-29T21:09:02.712Z,0.70
2022-07-29T21:11:53.095Z,0.90
2022-07-29T21:14:49.366Z,1.00
2022-07-29T21:17:45.971Z,0.70
2022-07-29T21:21:17.727Z,0.80
2022-07-29T21:24:12.328Z,0.70
2022-07-29T21:27:21.485Z,0.90
2022-07-29T21:30:11.902Z,0.80
2022-07-29T21:33:03.435Z,0.80
2022-07-29T21:39:06.914Z,0.90
2022-07-29T21:41:56.795Z,0.80
2022-07-29T21:44:45.987Z,0.70
2022-07-29T21:47:35.876Z,0.90
2022-07-29T21:50:41.531Z,0.90
2022-07-29T21:53:21.975Z,0.70
2022-07-29T21:56:14.653Z,1.00
2022-07-29T21:59:04.583Z,0.70
2022-07-29T22:02:00.444Z,1.10
2022-07-29T22:04:51.312Z,0.80
2022-07-29T22:07:56.375Z,0.90
2022-07-29T22:10:46.360Z,0.70
2022-07-29T22:13:36.977Z,0.90
2022-07-29T22:16:26.559Z,0.80
2022-07-29T22:29:56.223Z,1.00
2022-07-29T22:32:45.385Z,0.90
2022-07-29T22:35:35.257Z,0.70
2022-07-29T22:38:24.139Z,0.70
2022-07-29T22:41:41.644Z,0.70
2022-07-29T22:44:30.734Z,0.70
2022-07-29T22:47:46.620Z,0.80
2022-07-29T22:50:28.892Z,1.00
2022-07-29T22:53:18.937Z,0.90
2022-07-29T22:56:08.233Z,1.10
2022-07-29T22:58:57.533Z,1.00
2022-07-29T23:01:46.673Z,0.80
2022-07-29T23:04:35.919Z,0.80
2022-07-29T23:07:25.410Z,0.80
2022-07-29T23:10:15.333Z,0.90
2022-07-29T23:13:04.491Z,0.80
2022-07-29T23:15:53.947Z,1.00
2022-07-29T23:18:46.293Z,1.30
2022-07-29T23:21:35.814Z,1.00
2022-07-29T23:24:25.572Z,1.10
2022-07-29T23:27:14.759Z,0.90
2022-07-29T23:30:07.688Z,1.20
2022-07-29T23:32:56.860Z,1.00
2022-07-29T23:35:46.293Z,1.20
2022-07-29T23:38:35.428Z,1.30
2022-07-29T23:41:29.766Z,1.00
2022-07-29T23:44:18.967Z,1.00
2022-07-29T23:47:08.171Z,0.90
2022-07-29T23:49:57.695Z,0.90
2022-07-29T23:53:09.283Z,1.00
2022-07-29T23:55:48.738Z,1.20
2022-07-29T23:58:37.770Z,1.10
